Time;durP1;ratioP1;P1;durP2;ratioP2;P2;SDS_P1;SDS_P2;PMS_P1;PMS_P2;Temp;Humidity;BMP_temperature;BMP_pressure;BME280_temperature;BME280_humidity;BME280_pressure;Samples;Min_cycle;Max_cycle;Signal;HPM_P1;HPM_P2
2022/02/19 00:02:15;;;;;;;47.50;6.32;;;4.80;99.90;;;;;;5054626;28;20031;-76
2022/02/19 00:04:40;;;;;;;58.30;6.78;;;4.80;99.90;;;;;;5054522;28;20025;-76
2022/02/19 00:07:06;;;;;;;53.05;7.03;;;4.80;99.90;;;;;;5054482;28;20100;-77
2022/02/19 00:09:32;;;;;;;48.47;6.75;;;4.80;99.90;;;;;;5055130;28;20047;-77
2022/02/19 00:11:58;;;;;;;58.58;8.15;;;4.80;99.90;;;;;;5036637;28;20017;-76
2022/02/19 00:14:24;;;;;;;59.60;8.57;;;4.80;99.90;;;;;;5054741;28;20106;-75
2022/02/19 00:16:49;;;;;;;68.72;7.32;;;4.90;99.90;;;;;;5036348;28;20028;-75
2022/02/19 00:19:15;;;;;;;80.07;7.80;;;4.80;99.90;;;;;;5054270;28;20029;-76
2022/02/19 00:21:41;;;;;;;43.97;6.35;;;4.90;99.90;;;;;;5054439;28;20032;-76
2022/02/19 00:24:07;;;;;;;43.05;5.75;;;4.90;99.90;;;;;;5054015;28;20036;-76
2022/02/19 00:26:33;;;;;;;46.97;5.55;;;4.90;99.90;;;;;;5054038;28;20389;-76
2022/02/19 00:29:01;;;;;;;50.60;5.93;;;4.90;99.90;;;;;;5054443;28;20028;-77
2022/02/19 00:31:27;;;;;;;28.27;4.55;;;4.90;99.90;;;;;;5055813;28;20027;-72
2022/02/19 00:33:53;;;;;;;31.00;4.75;;;4.80;99.90;;;;;;5037598;28;20112;-72
2022/02/19 00:36:20;;;;;;;29.55;3.63;;;4.70;99.90;;;;;;5055522;28;20027;-72
2022/02/19 00:38:45;;;;;;;30.98;4.65;;;4.70;99.90;;;;;;5055685;28;20029;-72
2022/02/19 00:41:11;;;;;;;63.30;6.35;;;4.60;99.90;;;;;;5055388;28;20074;-72
2022/02/19 00:43:36;;;;;;;51.20;6.18;;;4.50;99.90;;;;;;5036811;28;20025;-72
2022/02/19 00:46:02;;;;;;;40.95;5.57;;;4.50;99.90;;;;;;5037871;28;20396;-72
2022/02/19 00:48:28;;;;;;;49.58;5.95;;;4.60;99.90;;;;;;5055278;28;20488;-72
2022/02/19 00:50:53;;;;;;;56.20;5.88;;;4.60;99.90;;;;;;5055030;28;20457;-73
2022/02/19 00:53:19;;;;;;;50.72;6.13;;;4.60;99.90;;;;;;5055373;28;20028;-72
2022/02/19 00:55:44;;;;;;;38.00;6.57;;;4.60;99.90;;;;;;5053863;28;20044;-72
2022/02/19 00:58:10;;;;;;;56.53;7.93;;;4.60;99.90;;;;;;5054525;28;20534;-72
2022/02/19 01:00:35;;;;;;;36.38;7.15;;;4.60;99.90;;;;;;5054463;28;20029;-72
2022/02/19 01:03:01;;;;;;;33.88;5.00;;;4.50;99.90;;;;;;5054972;28;20053;-72
2022/02/19 01:05:27;;;;;;;39.10;6.05;;;4.40;99.90;;;;;;5055974;28;20020;-72
2022/02/19 01:07:54;;;;;;;55.20;6.40;;;4.30;99.90;;;;;;5038568;28;20021;-73
2022/02/19 01:10:20;;;;;;;69.50;9.55;;;4.20;99.90;;;;;;5054160;28;20123;-73
2022/02/19 01:12:45;;;;;;;56.80;5.38;;;4.10;99.90;;;;;;5054131;28;20487;-73
2022/02/19 01:15:11;;;;;;;69.50;9.02;;;4.00;99.90;;;;;;5053731;28;20021;-72
2022/02/19 01:17:38;;;;;;;59.78;8.57;;;3.90;99.90;;;;;;5055074;28;20508;-72
2022/02/19 01:20:05;;;;;;;49.67;8.15;;;3.90;99.90;;;;;;5053783;28;20028;-72
2022/02/19 01:22:31;;;;;;;72.40;8.10;;;3.90;99.90;;;;;;5054115;28;20120;-73
2022/02/19 01:24:56;;;;;;;60.53;7.45;;;3.80;99.90;;;;;;5053767;28;20108;-73
2022/02/19 01:27:22;;;;;;;87.97;8.02;;;3.80;99.90;;;;;;5053506;28;20048;-73
2022/02/19 01:29:47;;;;;;;68.05;8.90;;;3.80;99.90;;;;;;5054290;28;20040;-73
2022/02/19 01:32:13;;;;;;;65.70;10.55;;;3.80;99.90;;;;;;5053628;28;20017;-73
2022/02/19 01:34:39;;;;;;;74.63;8.52;;;3.80;99.90;;;;;;5054305;28;20021;-73
2022/02/19 01:37:04;;;;;;;45.70;6.25;;;3.80;99.90;;;;;;5055650;28;20056;-73
2022/02/19 01:39:30;;;;;;;71.95;8.68;;;3.80;99.90;;;;;;5054073;28;20086;-73
2022/02/19 01:41:56;;;;;;;71.30;8.75;;;3.90;99.90;;;;;;5036014;28;20029;-73
2022/02/19 01:44:37;;;;;;;45.97;6.85;;;4.00;99.90;;;;;;5035443;28;20115;-73
2022/02/19 01:47:05;;;;;;;49.45;7.57;;;4.00;99.90;;;;;;5054166;28;20036;-73
2022/02/19 01:49:30;;;;;;;32.20;5.45;;;4.00;99.90;;;;;;5053931;28;20436;-73
2022/02/19 01:51:56;;;;;;;41.45;6.85;;;4.10;99.90;;;;;;5053868;28;20036;-73
2022/02/19 01:54:21;;;;;;;46.28;4.78;;;4.00;99.90;;;;;;5053579;28;20029;-73
2022/02/19 01:56:47;;;;;;;40.78;5.05;;;4.10;99.90;;;;;;5053173;28;20037;-73
2022/02/19 01:59:13;;;;;;;36.55;5.78;;;4.10;99.90;;;;;;5035390;28;20025;-73
2022/02/19 02:01:39;;;;;;;32.15;4.60;;;4.10;99.90;;;;;;5057221;28;20021;-73
2022/02/19 02:04:04;;;;;;;41.58;4.60;;;4.00;99.90;;;;;;5039227;28;20036;-73
2022/02/19 02:06:30;;;;;;;28.80;5.32;;;4.10;99.90;;;;;;5057065;28;20032;-73
2022/02/19 02:09:01;;;;;;;30.88;5.93;;;4.10;99.90;;;;;;5039869;28;20509;-73
2022/02/19 02:11:27;;;;;;;48.83;7.25;;;4.10;99.90;;;;;;5057644;28;20017;-73
2022/02/19 02:13:53;;;;;;;43.72;10.38;;;4.20;99.90;;;;;;5057634;28;20028;-73
2022/02/19 02:16:18;;;;;;;25.90;4.60;;;4.20;99.90;;;;;;5058648;28;20043;-73
2022/02/19 02:18:45;;;;;;;19.30;3.70;;;4.20;99.90;;;;;;5058298;28;20029;-72
2022/02/19 02:21:12;;;;;;;16.05;2.13;;;4.20;99.90;;;;;;5057380;28;20416;-73
2022/02/19 02:23:37;;;;;;;11.07;1.30;;;3.60;99.90;;;;;;5056900;28;20036;-74
2022/02/19 02:26:04;;;;;;;6.95;1.17;;;3.10;99.90;;;;;;5039154;28;20021;-73
2022/02/19 02:28:30;;;;;;;7.90;2.33;;;2.70;99.90;;;;;;5057569;28;20104;-73
2022/02/19 02:30:56;;;;;;;35.58;3.15;;;2.70;99.90;;;;;;5057289;28;20025;-73
2022/02/19 02:33:22;;;;;;;35.85;5.03;;;2.80;99.90;;;;;;5057276;28;20021;-73
2022/02/19 02:35:49;;;;;;;44.38;6.30;;;3.10;99.90;;;;;;5057711;28;20047;-73
2022/02/19 02:38:15;;;;;;;50.35;6.30;;;3.30;99.90;;;;;;5038696;28;20082;-75
2022/02/19 02:40:41;;;;;;;49.72;7.90;;;3.50;99.90;;;;;;5056437;28;20059;-74
2022/02/19 02:43:06;;;;;;;56.42;7.20;;;3.60;99.90;;;;;;5056263;28;20054;-74
2022/02/19 02:45:32;;;;;;;46.95;7.50;;;3.70;99.90;;;;;;5055923;28;20525;-74
2022/02/19 02:47:58;;;;;;;30.80;5.13;;;3.90;99.90;;;;;;5056016;28;20527;-74
2022/02/19 02:50:23;;;;;;;38.67;5.15;;;4.00;99.90;;;;;;5056061;28;20523;-75
2022/02/19 02:52:49;;;;;;;41.08;5.43;;;4.20;99.90;;;;;;5056281;28;20070;-75
2022/02/19 02:55:15;;;;;;;39.42;5.15;;;4.20;99.90;;;;;;5055683;28;20048;-74
2022/02/19 02:57:41;;;;;;;30.98;4.60;;;4.20;99.90;;;;;;5081265;22;20382;-73
2022/02/19 03:00:09;;;;;;;45.30;5.50;;;4.20;99.90;;;;;;5018412;28;20030;-72
2022/02/19 03:02:37;;;;;;;35.67;6.03;;;4.20;99.90;;;;;;5036056;28;20045;-72
2022/02/19 03:05:04;;;;;;;33.83;5.75;;;4.30;99.90;;;;;;5035971;28;20025;-72
2022/02/19 03:07:30;;;;;;;27.20;5.95;;;4.30;99.90;;;;;;5036228;28;20021;-73
2022/02/19 03:09:56;;;;;;;35.72;5.35;;;4.30;99.90;;;;;;5036037;28;20495;-73
2022/02/19 03:12:23;;;;;;;45.75;4.45;;;4.40;99.90;;;;;;5035982;28;20028;-73
2022/02/19 03:14:48;;;;;;;48.63;8.20;;;4.50;99.90;;;;;;5036106;28;20060;-73
2022/02/19 03:17:14;;;;;;;53.60;9.05;;;4.50;99.90;;;;;;5036033;28;20061;-73
2022/02/19 03:19:39;;;;;;;55.85;8.05;;;4.50;99.90;;;;;;5018276;28;20030;-73
2022/02/19 03:22:05;;;;;;;65.57;8.93;;;4.60;99.90;;;;;;5036062;28;20021;-73
2022/02/19 03:24:30;;;;;;;54.67;9.00;;;4.60;99.90;;;;;;5035610;28;20030;-73
2022/02/19 03:26:58;;;;;;;29.90;5.32;;;4.70;99.90;;;;;;5035818;28;20026;-73
2022/02/19 03:29:24;;;;;;;48.10;7.93;;;4.60;99.90;;;;;;5017908;28;20445;-73
2022/02/19 03:31:50;;;;;;;37.72;6.32;;;4.50;99.90;;;;;;5035545;28;20056;-73
2022/02/19 03:34:16;;;;;;;33.90;4.40;;;4.30;99.90;;;;;;5035855;28;20116;-73
2022/02/19 03:36:41;;;;;;;20.35;4.00;;;4.10;99.90;;;;;;5035730;28;20029;-73
2022/02/19 03:39:07;;;;;;;31.98;4.68;;;3.90;99.90;;;;;;5035485;28;20417;-72
2022/02/19 03:41:34;;;;;;;38.70;6.22;;;3.80;99.90;;;;;;5035543;28;20420;-72
2022/02/19 03:44:00;;;;;;;21.13;3.10;;;3.80;99.90;;;;;;5017626;28;20026;-73
2022/02/19 03:46:26;;;;;;;30.20;3.33;;;3.80;99.90;;;;;;5035386;28;20034;-73
2022/02/19 03:48:51;;;;;;;26.55;4.00;;;3.90;99.90;;;;;;5035628;28;20024;-73
2022/02/19 03:51:17;;;;;;;30.02;5.05;;;4.00;99.90;;;;;;5035258;28;20037;-73
2022/02/19 03:53:43;;;;;;;21.15;3.20;;;4.00;99.90;;;;;;5035259;28;20037;-73
2022/02/19 03:56:08;;;;;;;31.50;4.53;;;4.10;99.90;;;;;;5035077;28;20104;-74
2022/02/19 03:58:34;;;;;;;47.08;6.25;;;4.10;99.90;;;;;;5035503;28;20052;-73
2022/02/19 04:01:03;;;;;;;30.40;4.15;;;4.10;99.90;;;;;;5035329;28;20018;-73
2022/02/19 04:03:29;;;;;;;38.63;6.03;;;4.20;99.90;;;;;;5035082;28;20022;-73
2022/02/19 04:05:58;;;;;;;33.20;4.22;;;4.20;99.90;;;;;;5034866;28;20116;-74
2022/02/19 04:08:24;;;;;;;15.60;3.75;;;4.20;99.90;;;;;;5017434;28;20025;-74
2022/02/19 04:10:50;;;;;;;47.25;6.47;;;4.20;99.90;;;;;;5034943;28;20090;-74
2022/02/19 04:13:35;;;;;;;28.98;4.60;;;4.20;99.90;;;;;;5035172;28;20473;-73
2022/02/19 04:16:04;;;;;;;50.97;5.47;;;4.20;99.90;;;;;;5034745;28;20512;-74
2022/02/19 04:18:30;;;;;;;54.65;6.95;;;4.20;99.90;;;;;;5034836;28;20033;-74
2022/02/19 04:20:55;;;;;;;40.55;6.35;;;4.30;99.90;;;;;;5034983;28;20072;-74
2022/02/19 04:23:21;;;;;;;62.47;7.78;;;4.40;99.90;;;;;;5034523;28;20018;-73
2022/02/19 04:26:03;;;;;;;31.30;6.00;;;4.50;99.90;;;;;;5034512;28;20029;-74
2022/02/19 04:28:29;;;;;;;48.80;7.60;;;4.50;99.90;;;;;;5016888;28;20046;-74
2022/02/19 04:30:55;;;;;;;35.33;7.20;;;4.50;99.90;;;;;;5016812;28;20260;-73
2022/02/19 04:33:21;;;;;;;37.70;6.05;;;4.50;99.90;;;;;;5034559;28;20076;-73
2022/02/19 04:35:47;;;;;;;41.78;4.90;;;4.60;99.90;;;;;;5034394;28;20025;-74
2022/02/19 04:38:14;;;;;;;37.45;6.47;;;4.60;99.90;;;;;;5034397;28;20043;-73
2022/02/19 04:40:40;;;;;;;46.03;7.13;;;4.70;99.90;;;;;;5034467;28;20030;-73
2022/02/19 04:43:05;;;;;;;46.03;6.50;;;4.70;99.90;;;;;;5035045;28;20104;-73
2022/02/19 04:45:34;;;;;;;34.72;4.75;;;4.70;99.90;;;;;;5016537;28;20117;-73
2022/02/19 04:48:02;;;;;;;31.63;4.70;;;4.70;99.90;;;;;;5034482;28;20380;-74
2022/02/19 04:50:32;;;;;;;43.20;5.63;;;4.80;99.90;;;;;;5016756;28;20041;-73
2022/02/19 04:52:59;;;;;;;52.10;6.35;;;4.80;99.90;;;;;;5016616;28;20044;-73
2022/02/19 04:55:30;;;;;;;66.78;8.98;;;4.80;99.90;;;;;;5000571;28;20030;-73
2022/02/19 04:57:56;;;;;;;43.20;6.10;;;4.70;99.90;;;;;;5017427;28;20033;-74
2022/02/19 05:00:22;;;;;;;47.03;6.38;;;4.80;99.90;;;;;;5034125;28;20491;-74
2022/02/19 05:02:47;;;;;;;71.32;8.45;;;4.80;99.90;;;;;;5034406;28;20401;-73
2022/02/19 05:05:13;;;;;;;49.13;6.00;;;4.80;99.90;;;;;;5034125;28;20065;-74
2022/02/19 05:07:44;;;;;;;35.35;6.90;;;5.00;99.90;;;;;;5034068;28;20492;-73
2022/02/19 05:10:09;;;;;;;39.03;6.68;;;5.10;99.90;;;;;;5033644;28;20440;-73
2022/02/19 05:12:40;;;;;;;35.80;4.57;;;5.10;99.90;;;;;;5034475;28;20032;-73
2022/02/19 05:15:09;;;;;;;31.67;6.18;;;5.00;99.90;;;;;;5034230;28;20033;-73
2022/02/19 05:17:34;;;;;;;33.58;5.50;;;4.80;99.90;;;;;;5033978;28;20048;-74
2022/02/19 05:20:00;;;;;;;25.88;4.40;;;4.70;99.90;;;;;;5034508;28;20461;-73
2022/02/19 05:22:25;;;;;;;49.97;6.13;;;4.60;99.90;;;;;;5033810;28;20139;-73
2022/02/19 05:24:51;;;;;;;39.03;4.47;;;4.70;99.90;;;;;;5033957;28;20484;-73
2022/02/19 05:27:38;;;;;;;39.33;4.30;;;4.80;99.90;;;;;;5033822;28;20040;-74
2022/02/19 05:30:05;;;;;;;39.35;3.72;;;4.80;99.90;;;;;;5032871;28;20033;-73
2022/02/19 05:32:30;;;;;;;24.52;3.63;;;4.90;99.90;;;;;;5033760;28;20021;-73
2022/02/19 05:34:58;;;;;;;20.75;2.97;;;4.90;99.90;;;;;;5035123;28;20473;-73
2022/02/19 05:37:24;;;;;;;39.65;5.13;;;4.60;99.90;;;;;;5037669;28;20033;-73
2022/02/19 05:39:51;;;;;;;21.70;3.35;;;4.40;99.90;;;;;;5020144;28;20021;-73
2022/02/19 05:42:16;;;;;;;22.48;3.00;;;4.30;99.90;;;;;;5018206;28;20049;-73
2022/02/19 05:44:42;;;;;;;37.78;4.60;;;4.20;99.90;;;;;;5037715;28;20026;-74
2022/02/19 05:47:08;;;;;;;26.48;3.08;;;4.00;99.90;;;;;;5019828;28;20048;-73
2022/02/19 05:49:36;;;;;;;25.38;3.70;;;4.00;99.90;;;;;;5019858;28;20025;-73
2022/02/19 05:52:03;;;;;;;16.77;2.70;;;4.00;99.90;;;;;;5005361;28;20120;-73
2022/02/19 05:54:29;;;;;;;18.13;3.40;;;4.00;99.90;;;;;;5037636;28;20156;-73
2022/02/19 05:56:54;;;;;;;26.58;3.58;;;4.10;99.90;;;;;;5037362;28;20126;-73
2022/02/19 05:59:30;;;;;;;23.67;3.22;;;4.10;99.90;;;;;;5037379;28;20025;-73
2022/02/19 06:01:55;;;;;;;27.13;3.20;;;4.20;99.90;;;;;;5019913;28;20052;-73
2022/02/19 06:04:21;;;;;;;18.27;2.38;;;4.30;99.90;;;;;;5037495;28;20029;-73
2022/02/19 06:06:46;;;;;;;36.50;3.70;;;4.40;99.90;;;;;;5037305;28;20148;-73
2022/02/19 06:09:12;;;;;;;30.90;3.47;;;4.40;99.90;;;;;;5037263;28;20151;-74
2022/02/19 06:11:40;;;;;;;47.30;5.82;;;4.40;99.90;;;;;;5037199;28;20032;-74
2022/02/19 06:14:06;;;;;;;33.03;4.10;;;4.40;99.90;;;;;;5037147;28;20080;-73
2022/02/19 06:16:31;;;;;;;30.08;3.15;;;4.30;99.90;;;;;;5036934;28;20030;-73
2022/02/19 06:18:57;;;;;;;30.25;6.47;;;4.20;99.90;;;;;;5019343;28;20025;-73
2022/02/19 06:21:22;;;;;;;35.55;4.95;;;4.10;99.90;;;;;;5037068;28;20029;-73
2022/02/19 06:23:48;;;;;;;39.92;4.50;;;4.00;99.90;;;;;;5037249;28;20025;-73
2022/02/19 06:26:13;;;;;;;29.02;4.47;;;3.90;99.90;;;;;;5037294;28;20385;-73
2022/02/19 06:28:39;;;;;;;41.20;5.15;;;3.80;99.90;;;;;;5036835;28;20021;-73
2022/02/19 06:31:04;;;;;;;43.90;4.18;;;3.90;99.90;;;;;;5037312;28;20036;-73
2022/02/19 06:33:30;;;;;;;30.52;4.20;;;4.10;99.90;;;;;;5036746;28;20072;-74
2022/02/19 06:35:56;;;;;;;38.03;6.60;;;4.20;99.90;;;;;;5036666;28;20037;-73
2022/02/19 06:38:22;;;;;;;34.60;5.15;;;4.40;99.90;;;;;;5036749;28;20049;-73
2022/02/19 06:40:48;;;;;;;33.13;5.03;;;4.50;99.90;;;;;;5036682;28;20025;-73
2022/02/19 06:43:14;;;;;;;36.25;7.40;;;4.50;99.90;;;;;;5018958;28;20035;-73
2022/02/19 06:45:39;;;;;;;71.63;22.92;;;4.40;99.90;;;;;;5036107;28;20493;-73
2022/02/19 06:48:05;;;;;;;32.70;7.10;;;4.40;99.90;;;;;;5036476;28;20041;-73
2022/02/19 06:50:31;;;;;;;43.80;5.18;;;4.30;99.90;;;;;;5036666;28;20026;-74
2022/02/19 06:52:56;;;;;;;32.30;5.88;;;4.30;99.90;;;;;;5036391;28;20029;-73
2022/02/19 06:55:22;;;;;;;41.67;5.40;;;4.50;99.90;;;;;;5036776;28;20025;-73
2022/02/19 06:57:49;;;;;;;35.13;5.43;;;4.50;99.90;;;;;;5036122;28;20038;-73
2022/02/19 07:00:16;;;;;;;33.97;4.97;;;4.40;99.90;;;;;;5036293;28;20029;-73
2022/02/19 07:02:41;;;;;;;23.23;4.35;;;4.30;99.90;;;;;;5036799;28;20025;-73
2022/02/19 07:05:08;;;;;;;39.50;3.15;;;4.30;99.90;;;;;;5036140;28;20017;-73
2022/02/19 07:07:33;;;;;;;30.70;3.55;;;4.20;99.90;;;;;;5036962;28;20029;-73
2022/02/19 07:09:59;;;;;;;29.77;3.47;;;4.30;99.90;;;;;;5036257;28;20017;-72
2022/02/19 07:12:25;;;;;;;30.48;3.38;;;4.30;99.90;;;;;;5036353;28;20505;-72
2022/02/19 07:14:51;;;;;;;38.28;5.15;;;4.40;99.90;;;;;;5036016;28;20032;-72
2022/02/19 07:17:16;;;;;;;30.02;3.90;;;4.40;99.90;;;;;;5035928;28;20029;-73
2022/02/19 07:19:42;;;;;;;34.25;3.75;;;4.40;99.90;;;;;;5036494;28;20105;-73
2022/02/19 07:22:07;;;;;;;23.02;3.75;;;4.40;99.90;;;;;;5036099;28;20036;-73
2022/02/19 07:24:33;;;;;;;31.33;2.55;;;4.30;99.90;;;;;;5035790;28;20061;-72
2022/02/19 07:27:00;;;;;;;42.10;4.78;;;4.30;99.90;;;;;;5036087;28;20013;-73
2022/02/19 07:29:25;;;;;;;27.20;3.40;;;4.30;99.90;;;;;;5036014;28;20049;-73
2022/02/19 07:31:51;;;;;;;55.47;15.43;;;4.30;99.90;;;;;;5036157;28;20025;-73
2022/02/19 07:34:17;;;;;;;25.88;5.18;;;4.40;99.90;;;;;;5035556;28;20029;-73
2022/02/19 07:36:43;;;;;;;40.08;4.47;;;4.40;99.90;;;;;;5017626;28;20113;-73
2022/02/19 07:39:09;;;;;;;25.77;5.25;;;4.40;99.90;;;;;;5035409;28;20385;-73
2022/02/19 07:41:37;;;;;;;29.27;4.07;;;4.50;99.90;;;;;;5035433;28;20021;-73
2022/02/19 07:44:04;;;;;;;35.42;5.00;;;4.50;99.90;;;;;;5035382;28;20079;-73
2022/02/19 07:46:30;;;;;;;26.33;4.82;;;4.60;99.90;;;;;;5035219;28;20030;-73
2022/02/19 07:48:56;;;;;;;33.67;4.60;;;4.60;99.90;;;;;;5035200;28;20033;-72
2022/02/19 07:59:33;;;;;;;;;;;4.80;99.90;;;;;;5035866;28;20163;-73
2022/02/19 08:01:59;;;;;;;40.42;5.68;;;4.90;99.90;;;;;;5017270;28;20361;-73
2022/02/19 08:04:24;;;;;;;46.33;10.82;;;4.90;99.90;;;;;;5034852;28;20025;-73
2022/02/19 08:06:51;;;;;;;50.22;7.85;;;4.90;99.90;;;;;;5034821;28;20022;-73
2022/02/19 08:09:16;;;;;;;41.95;8.63;;;4.90;99.90;;;;;;5016952;28;20025;-73
2022/02/19 08:11:42;;;;;;;63.85;14.65;;;5.00;99.90;;;;;;5034767;28;20026;-73
2022/02/19 08:14:07;;;;;;;40.25;7.72;;;5.00;99.90;;;;;;5034737;28;20030;-73
2022/02/19 08:16:33;;;;;;;49.60;7.57;;;5.00;99.90;;;;;;5034519;28;20028;-73
2022/02/19 08:18:59;;;;;;;59.05;11.27;;;5.10;99.90;;;;;;5034681;28;20536;-73
2022/02/19 08:21:26;;;;;;;66.07;10.68;;;5.10;99.90;;;;;;5034650;28;20037;-73
2022/02/19 08:23:51;;;;;;;48.40;8.48;;;5.10;99.90;;;;;;5034520;28;20025;-73
2022/02/19 08:26:23;;;;;;;53.50;8.18;;;5.10;99.90;;;;;;5034605;28;20493;-73
2022/02/19 08:28:49;;;;;;;33.33;6.85;;;5.20;99.90;;;;;;5034805;28;20057;-73
2022/02/19 08:31:14;;;;;;;36.85;7.40;;;5.10;99.90;;;;;;5034433;28;20417;-73
2022/02/19 08:33:40;;;;;;;51.95;7.22;;;5.10;99.90;;;;;;5034401;28;20393;-73
2022/02/19 08:36:06;;;;;;;49.80;7.47;;;5.10;99.90;;;;;;5034884;28;20030;-73
2022/02/19 08:38:32;;;;;;;44.88;7.95;;;5.10;99.90;;;;;;5034390;28;20104;-73
2022/02/19 08:41:00;;;;;;;34.35;4.72;;;5.00;99.90;;;;;;5034803;28;20495;-73
2022/02/19 08:44:05;;;;;;;45.67;6.15;;;5.00;99.90;;;;;;5007826;28;20037;-73
2022/02/19 08:46:40;;;;;;;37.08;7.82;;;5.00;99.90;;;;;;5031564;28;20561;-73
2022/02/19 08:49:05;;;;;;;41.22;6.70;;;5.00;99.90;;;;;;5034224;28;20069;-73
2022/02/19 08:51:31;;;;;;;26.83;4.88;;;5.00;99.90;;;;;;5034107;28;20063;-73
2022/02/19 08:53:56;;;;;;;42.72;9.20;;;5.10;99.90;;;;;;5034024;28;20025;-73
2022/02/19 08:56:22;;;;;;;45.92;11.05;;;5.10;99.90;;;;;;5090660;22;20499;-71
2022/02/19 08:58:47;;;;;;;34.53;6.63;;;5.10;99.90;;;;;;5053624;28;20040;-72
2022/02/19 09:01:13;;;;;;;29.35;4.85;;;5.10;99.90;;;;;;5053658;28;20029;-72
2022/02/19 09:03:39;;;;;;;28.00;4.57;;;5.20;99.90;;;;;;5035899;28;20044;-72
2022/02/19 09:06:04;;;;;;;29.10;6.72;;;5.20;99.90;;;;;;5053528;28;20051;-71
2022/02/19 09:08:30;;;;;;;28.33;6.53;;;5.30;99.90;;;;;;5035467;28;20078;-71
2022/02/19 09:10:55;;;;;;;25.00;6.43;;;5.40;99.90;;;;;;5053686;28;20024;-71
2022/02/19 09:13:21;;;;;;;25.08;5.63;;;5.40;99.90;;;;;;5053701;28;20108;-71
2022/02/19 09:15:48;;;;;;;27.52;4.65;;;5.30;99.90;;;;;;5053390;28;20052;-71
2022/02/19 09:18:13;;;;;;;27.80;4.78;;;5.20;99.90;;;;;;5053356;28;20174;-71
2022/02/19 09:20:39;;;;;;;15.43;2.63;;;5.30;99.90;;;;;;5053308;28;20479;-71
2022/02/19 09:23:05;;;;;;;10.93;2.40;;;5.20;99.90;;;;;;5053282;28;20111;-72
2022/02/19 09:25:30;;;;;;;14.50;3.95;;;5.20;99.90;;;;;;5053335;28;20476;-72
2022/02/19 09:27:56;;;;;;;13.40;3.53;;;5.20;99.90;;;;;;5053249;28;20013;-72
2022/02/19 09:30:22;;;;;;;21.40;5.80;;;5.10;99.90;;;;;;5053236;28;20017;-72
2022/02/19 09:32:49;;;;;;;15.35;3.03;;;5.10;99.90;;;;;;5053599;28;20021;-73
2022/02/19 09:35:16;;;;;;;26.27;5.00;;;5.10;99.90;;;;;;5053394;28;20067;-73
2022/02/19 09:37:42;;;;;;;20.25;3.72;;;5.20;99.90;;;;;;5053113;28;20041;-73
2022/02/19 09:40:09;;;;;;;40.75;8.35;;;5.40;99.90;;;;;;5053153;28;20023;-72
2022/02/19 09:42:39;;;;;;;25.33;4.65;;;5.50;99.90;;;;;;5053091;28;20047;-72
2022/02/19 09:45:07;;;;;;;22.73;5.38;;;5.50;99.90;;;;;;5053569;28;20036;-72
2022/02/19 09:47:35;;;;;;;25.60;5.07;;;5.50;99.90;;;;;;5053273;28;20017;-72
2022/02/19 09:50:01;;;;;;;12.95;2.85;;;5.50;99.90;;;;;;5053397;28;20084;-72
2022/02/19 09:52:27;;;;;;;18.30;3.00;;;5.50;99.90;;;;;;5052994;28;20013;-72
2022/02/19 09:54:57;;;;;;;21.92;4.15;;;5.50;99.90;;;;;;5053608;28;20366;-72
2022/02/19 09:57:23;;;;;;;33.22;5.22;;;5.40;99.90;;;;;;5053129;28;20029;-72
2022/02/19 09:59:48;;;;;;;20.65;4.20;;;5.40;99.90;;;;;;5053034;28;20438;-71
2022/02/19 10:02:14;;;;;;;26.17;5.00;;;5.40;99.90;;;;;;5052976;28;20107;-71
2022/02/19 10:04:46;;;;;;;21.92;4.57;;;5.40;99.90;;;;;;5052853;28;20362;-71
2022/02/19 10:07:17;;;;;;;12.63;3.10;;;5.50;99.90;;;;;;5052908;28;20033;-71
2022/02/19 10:09:45;;;;;;;33.50;4.63;;;5.60;99.90;;;;;;5052785;28;20021;-72
2022/02/19 10:12:13;;;;;;;19.88;7.55;;;5.80;99.90;;;;;;5052857;28;20028;-72
2022/02/19 10:14:39;;;;;;;23.80;3.60;;;5.90;99.90;;;;;;5053446;28;20495;-71
2022/02/19 10:17:08;;;;;;;13.20;2.60;;;6.00;99.90;;;;;;5052782;28;20025;-72
2022/02/19 10:19:48;;;;;;;18.20;3.50;;;6.10;99.90;;;;;;5053126;28;20032;-72
2022/02/19 10:22:16;;;;;;;16.25;2.20;;;6.10;99.90;;;;;;5056069;28;20033;-72
2022/02/19 10:24:47;;;;;;;10.32;1.83;;;6.00;99.90;;;;;;5056592;28;20090;-72
2022/02/19 10:27:12;;;;;;;7.40;1.85;;;5.80;99.90;;;;;;5056436;28;20075;-72
2022/02/19 10:29:53;;;;;;;14.48;2.90;;;5.40;99.90;;;;;;5055123;28;20025;-72
2022/02/19 10:32:19;;;;;;;27.45;6.45;;;5.20;99.90;;;;;;5056547;28;20041;-71
2022/02/19 10:34:58;;;;;;;23.00;6.82;;;5.10;99.90;;;;;;5056597;28;20032;-71
2022/02/19 10:37:25;;;;;;;38.65;11.63;;;5.20;99.90;;;;;;5056195;28;20021;-72
2022/02/19 10:39:51;;;;;;;24.10;5.65;;;5.30;99.90;;;;;;5056110;28;20036;-72
2022/02/19 10:42:17;;;;;;;21.42;5.50;;;5.40;99.90;;;;;;5056358;28;20036;-72
2022/02/19 10:44:46;;;;;;;46.40;14.50;;;5.50;99.90;;;;;;5056050;28;20021;-71
2022/02/19 10:47:22;;;;;;;33.20;9.07;;;5.70;99.90;;;;;;5055901;28;20021;-71
2022/02/19 10:50:16;;;;;;;41.50;8.43;;;5.90;99.90;;;;;;5056218;28;20525;-72
2022/02/19 10:52:44;;;;;;;37.15;8.68;;;6.20;99.90;;;;;;5056509;28;20047;-73
2022/02/19 10:55:13;;;;;;;31.73;9.68;;;6.20;99.90;;;;;;5055905;28;20025;-73
2022/02/19 10:57:44;;;;;;;19.55;5.30;;;6.00;99.90;;;;;;5055752;28;20116;-72
2022/02/19 11:00:16;;;;;;;24.52;7.38;;;5.90;99.90;;;;;;5055658;28;20559;-72
2022/02/19 11:02:44;;;;;;;27.53;5.67;;;5.80;99.90;;;;;;5056366;28;20497;-72
2022/02/19 11:05:11;;;;;;;27.67;8.15;;;5.40;99.90;;;;;;5055885;28;20029;-72
2022/02/19 11:07:38;;;;;;;30.48;5.07;;;5.00;99.90;;;;;;5056964;28;20021;-72
2022/02/19 11:10:06;;;;;;;32.08;6.13;;;4.60;99.90;;;;;;5056374;28;20416;-72
2022/02/19 11:12:32;;;;;;;28.98;8.75;;;4.40;99.90;;;;;;5055740;28;20020;-72
2022/02/19 11:14:58;;;;;;;31.27;7.88;;;4.40;99.90;;;;;;5056134;28;20025;-72
2022/02/19 11:17:26;;;;;;;35.92;6.03;;;4.40;99.90;;;;;;5056354;28;20056;-72
2022/02/19 11:19:51;;;;;;;24.65;5.75;;;4.50;99.90;;;;;;5055959;28;20033;-72
2022/02/19 11:22:20;;;;;;;21.77;4.65;;;4.50;99.90;;;;;;5055527;28;20032;-73
2022/02/19 11:24:46;;;;;;;40.92;9.10;;;4.40;99.90;;;;;;5055556;28;20021;-73
2022/02/19 11:27:13;;;;;;;44.13;8.65;;;4.40;99.90;;;;;;5055106;28;20017;-73
2022/02/19 11:29:39;;;;;;;32.85;6.55;;;4.40;99.90;;;;;;5055484;28;20056;-73
2022/02/19 11:32:05;;;;;;;53.00;11.50;;;4.50;99.90;;;;;;5054082;28;20013;-72
2022/02/19 11:34:32;;;;;;;51.78;5.97;;;4.90;99.90;;;;;;5055268;28;20083;-71
2022/02/19 11:37:16;;;;;;;46.80;8.75;;;5.10;99.90;;;;;;5055023;28;20017;-71
2022/02/19 11:40:05;;;;;;;58.38;7.93;;;5.10;99.90;;;;;;5055437;28;20028;-71
2022/02/19 11:43:00;;;;;;;47.70;6.93;;;5.40;99.90;;;;;;5055288;28;20083;-72
2022/02/19 11:45:31;;;;;;;43.03;7.05;;;5.30;99.90;;;;;;5033854;28;20036;-72
2022/02/19 11:48:06;;;;;;;32.85;3.92;;;5.20;99.90;;;;;;5055258;28;20029;-72
2022/02/19 11:50:33;;;;;;;30.60;5.53;;;5.10;99.90;;;;;;5054718;28;20039;-72
2022/02/19 11:53:12;;;;;;;35.75;5.10;;;5.00;99.90;;;;;;5054837;28;20013;-72
2022/02/19 11:55:47;;;;;;;31.65;4.82;;;5.00;99.90;;;;;;5054823;28;20028;-72
2022/02/19 11:58:17;;;;;;;26.15;4.15;;;5.00;99.90;;;;;;5036521;28;20036;-71
2022/02/19 12:00:54;;;;;;;7.90;1.98;;;4.90;99.90;;;;;;5054679;28;20020;-71
2022/02/19 12:03:34;;;;;;;12.80;2.42;;;4.90;99.90;;;;;;5054692;28;20040;-71
2022/02/19 12:06:20;;;;;;;15.35;2.95;;;4.80;99.90;;;;;;5054531;28;20385;-71
2022/02/19 12:08:48;;;;;;;12.60;2.88;;;4.60;99.90;;;;;;5054794;28;20026;-71
2022/02/19 12:11:25;;;;;;;7.55;1.40;;;4.40;99.90;;;;;;5054373;28;20027;-71
2022/02/19 12:13:56;;;;;;;12.70;2.00;;;4.20;99.90;;;;;;5055068;28;20036;-71
2022/02/19 12:16:31;;;;;;;11.25;3.08;;;4.20;99.90;;;;;;5054600;28;20028;-71
2022/02/19 12:19:01;;;;;;;8.02;3.10;;;4.10;99.90;;;;;;5054173;28;20147;-71
2022/02/19 12:21:45;;;;;;;21.30;2.28;;;4.00;99.90;;;;;;5054232;28;20017;-71
2022/02/19 12:24:25;;;;;;;18.05;2.40;;;4.00;99.90;;;;;;5054721;28;20400;-71
2022/02/19 12:27:05;;;;;;;19.42;4.38;;;4.10;99.90;;;;;;5054243;28;20024;-71
2022/02/19 12:29:38;;;;;;;35.75;7.30;;;4.20;99.90;;;;;;5054392;28;20066;-71
2022/02/19 12:32:04;;;;;;;33.85;4.65;;;4.30;99.90;;;;;;5054056;28;20389;-71
2022/02/19 12:34:32;;;;;;;44.42;6.13;;;4.60;99.90;;;;;;5053925;28;20035;-71
2022/02/19 12:36:59;;;;;;;22.98;4.45;;;5.10;99.90;;;;;;5054109;28;20029;-71
2022/02/19 12:39:26;;;;;;;19.55;3.47;;;5.50;99.90;;;;;;5054146;28;20122;-71
2022/02/19 12:41:57;;;;;;;33.95;5.47;;;6.00;99.90;;;;;;5053860;28;20032;-71
2022/02/19 12:44:23;;;;;;;25.67;3.90;;;6.40;99.90;;;;;;5035570;28;20488;-71
2022/02/19 12:46:55;;;;;;;28.27;4.28;;;6.50;99.90;;;;;;5053780;28;20079;-75
2022/02/19 12:49:23;;;;;;;40.65;6.28;;;6.60;99.90;;;;;;5053797;28;20503;-74
2022/02/19 12:51:57;;;;;;;40.53;5.35;;;6.30;99.90;;;;;;5053977;28;20024;-74
2022/02/19 12:54:37;;;;;;;39.58;5.47;;;5.90;99.90;;;;;;5053972;28;20465;-76
2022/02/19 12:57:06;;;;;;;46.63;6.28;;;5.70;99.90;;;;;;5053545;28;20149;-77
2022/02/19 12:59:33;;;;;;;61.08;8.38;;;5.60;99.90;;;;;;5053520;28;20024;-76